LNE weather

Lonorore Airport
Lonorore, Penama, Vanuatu

Public forecast

Using degrees Celsius for public forecast. Weather courtesy of forecast.io.

METAR (pilot weather report)

Closest report is Longana Airport, 35.6 nm (65.9 km) NNW. Retrieved 2019/09/21 12:00 UTC (42 minutes ago):

NVSG 211200Z AUTO 16006KT //// // NCD 25/19 Q1018

TAF (pilot weather forecast)

Closest forecast is Longana Airport, 35.6 nm (65.9 km) NNW. Retrieved 2019/09/21 12:08 UTC (34 minutes ago):

TAF NVSG 211000Z 2112/2212 17008KT 9999 SCT020 PROB30 INTER 2112/2118 9000 -SHRA BKN018